sensor_id;sensor_type;location;lat;lon;timestamp;temperature;humidity
19449;DHT22;9863;49.404;8.246;2023-05-14T00:04:07;12.30;99.90
19449;DHT22;9863;49.404;8.246;2023-05-14T00:13:57;12.20;99.90
19449;DHT22;9863;49.404;8.246;2023-05-14T00:26:14;12.20;99.90
19449;DHT22;9863;49.404;8.246;2023-05-14T00:36:04;12.30;99.90
19449;DHT22;9863;49.404;8.246;2023-05-14T00:38:31;12.30;99.90
19449;DHT22;9863;49.404;8.246;2023-05-14T00:40:58;12.30;99.90
19449;DHT22;9863;49.404;8.246;2023-05-14T00:45:53;12.40;99.90
19449;DHT22;9863;49.404;8.246;2023-05-14T00:50:49;12.60;99.90
19449;DHT22;9863;49.404;8.246;2023-05-14T00:53:18;12.60;99.90
19449;DHT22;9863;49.404;8.246;2023-05-14T00:55:45;12.60;99.90
19449;DHT22;9863;49.404;8.246;2023-05-14T01:09:00;12.60;99.90
19449;DHT22;9863;49.404;8.246;2023-05-14T01:15:01;12.60;99.90
19449;DHT22;9863;49.404;8.246;2023-05-14T01:17:45;12.80;99.90
19449;DHT22;9863;49.404;8.246;2023-05-14T01:20:15;12.50;99.90
19449;DHT22;9863;49.404;8.246;2023-05-14T01:22:42;12.50;99.90
19449;DHT22;9863;49.404;8.246;2023-05-14T01:25:09;12.40;99.90
19449;DHT22;9863;49.404;8.246;2023-05-14T01:30:37;12.40;99.90
19449;DHT22;9863;49.404;8.246;2023-05-14T01:33:10;12.50;99.90
19449;DHT22;9863;49.404;8.246;2023-05-14T01:35:39;12.40;99.90
19449;DHT22;9863;49.404;8.246;2023-05-14T01:38:10;12.40;99.90
19449;DHT22;9863;49.404;8.246;2023-05-14T01:40:38;12.40;99.90
19449;DHT22;9863;49.404;8.246;2023-05-14T01:43:05;12.50;99.90
19449;DHT22;9863;49.404;8.246;2023-05-14T01:45:34;12.30;99.90
19449;DHT22;9863;49.404;8.246;2023-05-14T01:48:03;12.40;99.90
19449;DHT22;9863;49.404;8.246;2023-05-14T01:50:31;12.40;99.90
19449;DHT22;9863;49.404;8.246;2023-05-14T01:57:53;12.30;99.90
19449;DHT22;9863;49.404;8.246;2023-05-14T02:00:22;12.40;99.90
19449;DHT22;9863;49.404;8.246;2023-05-14T02:02:51;12.40;99.90
19449;DHT22;9863;49.404;8.246;2023-05-14T02:07:46;12.40;99.90
19449;DHT22;9863;49.404;8.246;2023-05-14T02:10:13;12.30;99.90
19449;DHT22;9863;49.404;8.246;2023-05-14T02:12:41;12.30;99.90
19449;DHT22;9863;49.404;8.246;2023-05-14T02:15:08;12.30;99.90
19449;DHT22;9863;49.404;8.246;2023-05-14T02:17:36;12.40;99.90
19449;DHT22;9863;49.404;8.246;2023-05-14T02:20:04;12.30;99.90
19449;DHT22;9863;49.404;8.246;2023-05-14T02:27:27;12.40;99.90
19449;DHT22;9863;49.404;8.246;2023-05-14T02:32:27;12.30;99.90
19449;DHT22;9863;49.404;8.246;2023-05-14T02:34:54;12.30;99.90
19449;DHT22;9863;49.404;8.246;2023-05-14T02:39:48;12.20;99.90
19449;DHT22;9863;49.404;8.246;2023-05-14T02:42:16;12.10;99.90
19449;DHT22;9863;49.404;8.246;2023-05-14T02:47:10;12.10;99.90
19449;DHT22;9863;49.404;8.246;2023-05-14T02:52:06;12.10;99.90
19449;DHT22;9863;49.404;8.246;2023-05-14T02:54:33;12.10;99.90
19449;DHT22;9863;49.404;8.246;2023-05-14T02:57:00;12.00;99.90
19449;DHT22;9863;49.404;8.246;2023-05-14T03:01:55;12.10;99.90
19449;DHT22;9863;49.404;8.246;2023-05-14T03:04:22;11.90;99.90
19449;DHT22;9863;49.404;8.246;2023-05-14T03:09:17;12.00;99.90
19449;DHT22;9863;49.404;8.246;2023-05-14T03:11:44;12.10;99.90
19449;DHT22;9863;49.404;8.246;2023-05-14T03:14:11;11.90;99.90
19449;DHT22;9863;49.404;8.246;2023-05-14T03:16:38;11.80;99.90
19449;DHT22;9863;49.404;8.246;2023-05-14T03:21:35;11.70;99.90
19449;DHT22;9863;49.404;8.246;2023-05-14T03:24:03;11.90;99.90
19449;DHT22;9863;49.404;8.246;2023-05-14T03:31:25;11.60;99.90
19449;DHT22;9863;49.404;8.246;2023-05-14T03:33:52;11.70;99.90
19449;DHT22;9863;49.404;8.246;2023-05-14T03:36:19;11.50;99.90
19449;DHT22;9863;49.404;8.246;2023-05-14T03:38:46;11.40;99.90
19449;DHT22;9863;49.404;8.246;2023-05-14T03:41:13;11.40;99.90
19449;DHT22;9863;49.404;8.246;2023-05-14T03:46:07;11.40;99.90
19449;DHT22;9863;49.404;8.246;2023-05-14T03:53:30;11.20;99.90
19449;DHT22;9863;49.404;8.246;2023-05-14T04:00:52;11.20;99.90
19449;DHT22;9863;49.404;8.246;2023-05-14T04:03:19;11.20;99.90
19449;DHT22;9863;49.404;8.246;2023-05-14T04:05:47;11.30;99.90
19449;DHT22;9863;49.404;8.246;2023-05-14T04:08:18;11.10;99.90
19449;DHT22;9863;49.404;8.246;2023-05-14T04:10:45;11.10;99.90
19449;DHT22;9863;49.404;8.246;2023-05-14T04:13:16;11.10;99.90
19449;DHT22;9863;49.404;8.246;2023-05-14T04:15:43;11.00;99.90
19449;DHT22;9863;49.404;8.246;2023-05-14T04:25:34;10.90;99.90
19449;DHT22;9863;49.404;8.246;2023-05-14T04:55:07;11.10;99.90
19449;DHT22;9863;49.404;8.246;2023-05-14T05:00:05;11.10;99.90
19449;DHT22;9863;49.404;8.246;2023-05-14T05:09:59;11.20;99.90
19449;DHT22;9863;49.404;8.246;2023-05-14T05:14:56;11.30;99.90
19449;DHT22;9863;49.404;8.246;2023-05-14T05:17:24;11.30;99.90
19449;DHT22;9863;49.404;8.246;2023-05-14T05:24:46;11.50;99.90
19449;DHT22;9863;49.404;8.246;2023-05-14T05:29:44;11.50;99.90
19449;DHT22;9863;49.404;8.246;2023-05-14T05:34:40;11.60;99.90
19449;DHT22;9863;49.404;8.246;2023-05-14T05:37:07;11.80;99.90
19449;DHT22;9863;49.404;8.246;2023-05-14T05:42:07;11.70;99.90
19449;DHT22;9863;49.404;8.246;2023-05-14T05:44:35;11.80;99.90
19449;DHT22;9863;49.404;8.246;2023-05-14T05:56:58;11.80;99.90
19449;DHT22;9863;49.404;8.246;2023-05-14T05:59:33;12.00;99.90
19449;DHT22;9863;49.404;8.246;2023-05-14T06:11:51;12.30;99.90
19449;DHT22;9863;49.404;8.246;2023-05-14T06:29:09;12.40;99.90
19449;DHT22;9863;49.404;8.246;2023-05-14T06:31:36;12.50;99.90
19449;DHT22;9863;49.404;8.246;2023-05-14T06:53:54;12.90;99.90
19449;DHT22;9863;49.404;8.246;2023-05-14T07:08:39;13.30;99.90
19449;DHT22;9863;49.404;8.246;2023-05-14T07:23:24;14.10;99.90
19449;DHT22;9863;49.404;8.246;2023-05-14T07:35:41;14.50;99.90
19449;DHT22;9863;49.404;8.246;2023-05-14T07:40:35;14.90;99.90
19449;DHT22;9863;49.404;8.246;2023-05-14T07:52:52;14.90;99.90
19449;DHT22;9863;49.404;8.246;2023-05-14T07:55:19;15.10;99.90
19449;DHT22;9863;49.404;8.246;2023-05-14T08:00:14;15.70;99.90
19449;DHT22;9863;49.404;8.246;2023-05-14T08:02:43;15.80;99.90
19449;DHT22;9863;49.404;8.246;2023-05-14T08:05:10;15.90;99.90
19449;DHT22;9863;49.404;8.246;2023-05-14T08:10:06;16.00;99.90
19449;DHT22;9863;49.404;8.246;2023-05-14T08:12:33;15.70;99.90
19449;DHT22;9863;49.404;8.246;2023-05-14T08:15:01;15.90;99.90
19449;DHT22;9863;49.404;8.246;2023-05-14T08:17:29;16.20;99.90
19449;DHT22;9863;49.404;8.246;2023-05-14T08:19:56;16.20;99.90
19449;DHT22;9863;49.404;8.246;2023-05-14T08:22:23;16.40;99.90
19449;DHT22;9863;49.404;8.246;2023-05-14T08:24:50;16.50;99.90
19449;DHT22;9863;49.404;8.246;2023-05-14T08:27:17;16.30;99.90
19449;DHT22;9863;49.404;8.246;2023-05-14T08:29:44;16.60;99.90
19449;DHT22;9863;49.404;8.246;2023-05-14T08:32:12;16.70;99.90
19449;DHT22;9863;49.404;8.246;2023-05-14T08:34:49;16.50;99.90
19449;DHT22;9863;49.404;8.246;2023-05-14T08:37:16;16.30;99.90
19449;DHT22;9863;49.404;8.246;2023-05-14T08:39:43;16.80;99.90
19449;DHT22;9863;49.404;8.246;2023-05-14T08:42:12;17.30;99.90
19449;DHT22;9863;49.404;8.246;2023-05-14T08:44:52;17.30;99.90
19449;DHT22;9863;49.404;8.246;2023-05-14T08:47:21;17.10;99.90
19449;DHT22;9863;49.404;8.246;2023-05-14T08:50:00;17.50;99.90
19449;DHT22;9863;49.404;8.246;2023-05-14T08:52:33;17.70;99.90
19449;DHT22;9863;49.404;8.246;2023-05-14T08:55:03;17.90;99.90
19449;DHT22;9863;49.404;8.246;2023-05-14T08:57:32;17.90;99.90
19449;DHT22;9863;49.404;8.246;2023-05-14T09:00:01;18.20;99.90
19449;DHT22;9863;49.404;8.246;2023-05-14T09:02:41;18.60;99.90
19449;DHT22;9863;49.404;8.246;2023-05-14T09:05:10;17.90;99.90
19449;DHT22;9863;49.404;8.246;2023-05-14T09:07:39;17.90;99.90
19449;DHT22;9863;49.404;8.246;2023-05-14T09:10:07;18.10;99.90
19449;DHT22;9863;49.404;8.246;2023-05-14T09:12:34;17.90;99.90
19449;DHT22;9863;49.404;8.246;2023-05-14T09:15:02;18.40;99.90
19449;DHT22;9863;49.404;8.246;2023-05-14T09:17:31;18.30;99.90
19449;DHT22;9863;49.404;8.246;2023-05-14T09:19:59;18.60;99.90
19449;DHT22;9863;49.404;8.246;2023-05-14T09:22:28;18.80;99.90
19449;DHT22;9863;49.404;8.246;2023-05-14T09:25:02;19.00;99.90
19449;DHT22;9863;49.404;8.246;2023-05-14T09:27:32;19.00;99.90
19449;DHT22;9863;49.404;8.246;2023-05-14T09:30:08;20.90;99.90
19449;DHT22;9863;49.404;8.246;2023-05-14T09:32:40;19.10;99.90
19449;DHT22;9863;49.404;8.246;2023-05-14T09:35:15;19.20;99.90
19449;DHT22;9863;49.404;8.246;2023-05-14T09:37:52;18.90;99.90
19449;DHT22;9863;49.404;8.246;2023-05-14T09:40:21;19.10;99.90
19449;DHT22;9863;49.404;8.246;2023-05-14T09:42:50;19.00;99.90
19449;DHT22;9863;49.404;8.246;2023-05-14T09:45:21;18.90;99.90
19449;DHT22;9863;49.404;8.246;2023-05-14T09:50:16;18.10;99.90
19449;DHT22;9863;49.404;8.246;2023-05-14T09:52:43;18.30;99.90
19449;DHT22;9863;49.404;8.246;2023-05-14T09:55:11;19.50;99.90
19449;DHT22;9863;49.404;8.246;2023-05-14T09:57:39;19.50;99.90
19449;DHT22;9863;49.404;8.246;2023-05-14T10:00:06;22.40;99.90
19449;DHT22;9863;49.404;8.246;2023-05-14T10:02:35;19.80;99.90
19449;DHT22;9863;49.404;8.246;2023-05-14T10:05:05;19.50;99.90
19449;DHT22;9863;49.404;8.246;2023-05-14T10:07:40;19.50;99.90
19449;DHT22;9863;49.404;8.246;2023-05-14T10:10:14;19.40;99.90
19449;DHT22;9863;49.404;8.246;2023-05-14T10:12:48;19.40;99.90
19449;DHT22;9863;49.404;8.246;2023-05-14T10:15:31;19.60;99.90
19449;DHT22;9863;49.404;8.246;2023-05-14T10:18:05;19.50;99.90
19449;DHT22;9863;49.404;8.246;2023-05-14T10:20:38;20.00;99.90
19449;DHT22;9863;49.404;8.246;2023-05-14T10:23:06;19.70;99.90
19449;DHT22;9863;49.404;8.246;2023-05-14T10:25:34;20.00;99.90
19449;DHT22;9863;49.404;8.246;2023-05-14T10:30:31;19.80;99.90
19449;DHT22;9863;49.404;8.246;2023-05-14T10:33:08;20.10;99.90
19449;DHT22;9863;49.404;8.246;2023-05-14T10:36:03;19.70;99.90
19449;DHT22;9863;49.404;8.246;2023-05-14T10:38:33;19.30;99.90
19449;DHT22;9863;49.404;8.246;2023-05-14T10:41:15;19.20;99.90
19449;DHT22;9863;49.404;8.246;2023-05-14T10:43:47;18.80;99.90
19449;DHT22;9863;49.404;8.246;2023-05-14T10:46:14;18.90;99.90
19449;DHT22;9863;49.404;8.246;2023-05-14T10:48:42;18.60;99.90
19449;DHT22;9863;49.404;8.246;2023-05-14T10:51:10;18.40;99.90
19449;DHT22;9863;49.404;8.246;2023-05-14T10:53:39;18.40;99.90
19449;DHT22;9863;49.404;8.246;2023-05-14T10:56:09;18.60;99.90
19449;DHT22;9863;49.404;8.246;2023-05-14T10:58:43;18.70;99.90
19449;DHT22;9863;49.404;8.246;2023-05-14T11:01:12;18.60;99.90
19449;DHT22;9863;49.404;8.246;2023-05-14T11:03:44;18.30;99.90
19449;DHT22;9863;49.404;8.246;2023-05-14T11:06:14;18.50;99.90
19449;DHT22;9863;49.404;8.246;2023-05-14T11:08:42;18.60;99.90
19449;DHT22;9863;49.404;8.246;2023-05-14T11:11:12;18.50;99.90
19449;DHT22;9863;49.404;8.246;2023-05-14T11:13:40;18.40;99.90
19449;DHT22;9863;49.404;8.246;2023-05-14T11:16:08;18.50;99.90
19449;DHT22;9863;49.404;8.246;2023-05-14T11:18:38;18.60;99.90
19449;DHT22;9863;49.404;8.246;2023-05-14T11:21:07;18.30;99.90
19449;DHT22;9863;49.404;8.246;2023-05-14T11:23:34;18.30;99.90
19449;DHT22;9863;49.404;8.246;2023-05-14T11:26:01;18.20;99.90
19449;DHT22;9863;49.404;8.246;2023-05-14T11:28:29;18.30;99.90
19449;DHT22;9863;49.404;8.246;2023-05-14T11:30:56;18.30;99.90
19449;DHT22;9863;49.404;8.246;2023-05-14T11:33:26;18.50;99.90
19449;DHT22;9863;49.404;8.246;2023-05-14T11:35:53;18.50;99.90
19449;DHT22;9863;49.404;8.246;2023-05-14T11:38:21;18.50;99.90
19449;DHT22;9863;49.404;8.246;2023-05-14T11:40:56;18.60;99.90
19449;DHT22;9863;49.404;8.246;2023-05-14T11:43:25;18.60;99.90
19449;DHT22;9863;49.404;8.246;2023-05-14T11:45:55;18.60;99.90
19449;DHT22;9863;49.404;8.246;2023-05-14T11:50:51;18.60;99.90
19449;DHT22;9863;49.404;8.246;2023-05-14T11:53:23;18.30;99.90
19449;DHT22;9863;49.404;8.246;2023-05-14T11:55:52;18.50;99.90
19449;DHT22;9863;49.404;8.246;2023-05-14T11:58:20;18.80;99.90
19449;DHT22;9863;49.404;8.246;2023-05-14T12:00:52;18.90;99.90
19449;DHT22;9863;49.404;8.246;2023-05-14T12:03:19;19.20;99.90
19449;DHT22;9863;49.404;8.246;2023-05-14T12:06:00;19.20;99.90
19449;DHT22;9863;49.404;8.246;2023-05-14T12:08:29;19.10;99.90
19449;DHT22;9863;49.404;8.246;2023-05-14T12:10:58;19.20;99.90
19449;DHT22;9863;49.404;8.246;2023-05-14T12:13:28;19.40;99.90
19449;DHT22;9863;49.404;8.246;2023-05-14T12:15:58;19.40;99.90
19449;DHT22;9863;49.404;8.246;2023-05-14T12:18:28;19.60;99.90
19449;DHT22;9863;49.404;8.246;2023-05-14T12:21:02;19.70;99.90
19449;DHT22;9863;49.404;8.246;2023-05-14T12:23:30;19.90;99.90
19449;DHT22;9863;49.404;8.246;2023-05-14T12:26:03;20.50;99.90
19449;DHT22;9863;49.404;8.246;2023-05-14T12:28:32;20.70;99.90
19449;DHT22;9863;49.404;8.246;2023-05-14T12:35:59;21.20;99.90
19449;DHT22;9863;49.404;8.246;2023-05-14T12:38:48;20.60;99.90
19449;DHT22;9863;49.404;8.246;2023-05-14T12:41:18;20.20;99.90
19449;DHT22;9863;49.404;8.246;2023-05-14T12:46:18;20.00;99.90
19449;DHT22;9863;49.404;8.246;2023-05-14T12:51:13;20.60;99.90
19449;DHT22;9863;49.404;8.246;2023-05-14T13:03:30;21.70;99.90
19449;DHT22;9863;49.404;8.246;2023-05-14T13:13:21;21.90;99.90
19449;DHT22;9863;49.404;8.246;2023-05-14T13:15:50;21.70;99.90
19449;DHT22;9863;49.404;8.246;2023-05-14T13:20:46;21.80;99.90
19449;DHT22;9863;49.404;8.246;2023-05-14T13:23:13;21.60;99.90
19449;DHT22;9863;49.404;8.246;2023-05-14T13:30:35;21.50;99.90
19449;DHT22;9863;49.404;8.246;2023-05-14T13:40:26;22.40;99.90
19449;DHT22;9863;49.404;8.246;2023-05-14T13:57:39;23.20;99.90
19449;DHT22;9863;49.404;8.246;2023-05-14T14:00:07;23.40;99.90
19449;DHT22;9863;49.404;8.246;2023-05-14T14:09:58;23.40;99.90
19449;DHT22;9863;49.404;8.246;2023-05-14T14:29:45;23.00;99.90
19449;DHT22;9863;49.404;8.246;2023-05-14T14:34:39;22.70;99.90
19449;DHT22;9863;49.404;8.246;2023-05-14T14:59:17;22.30;99.90
19449;DHT22;9863;49.404;8.246;2023-05-14T15:16:30;21.90;99.90
19449;DHT22;9863;49.404;8.246;2023-05-14T15:18:57;21.90;99.90
19449;DHT22;9863;49.404;8.246;2023-05-14T15:21:25;22.50;99.90
19449;DHT22;9863;49.404;8.246;2023-05-14T15:23:52;23.00;99.90
19449;DHT22;9863;49.404;8.246;2023-05-14T15:28:47;22.80;99.90
19449;DHT22;9863;49.404;8.246;2023-05-14T15:31:15;22.40;99.90
19449;DHT22;9863;49.404;8.246;2023-05-14T15:33:42;22.70;99.90
19449;DHT22;9863;49.404;8.246;2023-05-14T15:36:10;22.50;99.90
19449;DHT22;9863;49.404;8.246;2023-05-14T15:38:38;22.80;99.90
19449;DHT22;9863;49.404;8.246;2023-05-14T15:41:06;22.90;99.90
19449;DHT22;9863;49.404;8.246;2023-05-14T15:43:33;23.10;99.90
19449;DHT22;9863;49.404;8.246;2023-05-14T15:46:00;23.00;99.90
19449;DHT22;9863;49.404;8.246;2023-05-14T15:48:27;22.90;99.90
19449;DHT22;9863;49.404;8.246;2023-05-14T15:50:58;23.30;99.90
19449;DHT22;9863;49.404;8.246;2023-05-14T15:53:25;23.30;99.90
19449;DHT22;9863;49.404;8.246;2023-05-14T15:55:52;23.00;99.90
19449;DHT22;9863;49.404;8.246;2023-05-14T16:00:48;23.00;99.90
19449;DHT22;9863;49.404;8.246;2023-05-14T16:03:16;23.20;99.90
19449;DHT22;9863;49.404;8.246;2023-05-14T16:05:43;23.00;99.90
19449;DHT22;9863;49.404;8.246;2023-05-14T16:10:38;23.70;99.90
19449;DHT22;9863;49.404;8.246;2023-05-14T16:13:05;23.70;99.90
19449;DHT22;9863;49.404;8.246;2023-05-14T16:20:27;23.30;99.90
19449;DHT22;9863;49.404;8.246;2023-05-14T16:22:56;23.10;99.90
19449;DHT22;9863;49.404;8.246;2023-05-14T16:25:23;23.10;99.90
19449;DHT22;9863;49.404;8.246;2023-05-14T16:30:18;23.60;99.90
19449;DHT22;9863;49.404;8.246;2023-05-14T16:32:45;23.80;99.90
19449;DHT22;9863;49.404;8.246;2023-05-14T16:35:15;22.90;99.90
19449;DHT22;9863;49.404;8.246;2023-05-14T16:40:10;23.30;99.90
19449;DHT22;9863;49.404;8.246;2023-05-14T16:42:38;23.60;99.90
19449;DHT22;9863;49.404;8.246;2023-05-14T16:45:05;23.90;99.90
19449;DHT22;9863;49.404;8.246;2023-05-14T16:50:01;24.00;99.90
19449;DHT22;9863;49.404;8.246;2023-05-14T17:09:42;23.30;99.90
19449;DHT22;9863;49.404;8.246;2023-05-14T17:17:06;22.30;99.90
19449;DHT22;9863;49.404;8.246;2023-05-14T17:19:34;22.00;99.90
19449;DHT22;9863;49.404;8.246;2023-05-14T17:22:01;18.40;99.90
19449;DHT22;9863;49.404;8.246;2023-05-14T17:24:31;21.70;99.90
19449;DHT22;9863;49.404;8.246;2023-05-14T17:31:53;22.60;99.90
19449;DHT22;9863;49.404;8.246;2023-05-14T17:34:20;22.20;99.90
19449;DHT22;9863;49.404;8.246;2023-05-14T17:41:43;21.00;99.90
19449;DHT22;9863;49.404;8.246;2023-05-14T17:51:48;20.50;99.90
19449;DHT22;9863;49.404;8.246;2023-05-14T17:54:15;20.40;99.90
19449;DHT22;9863;49.404;8.246;2023-05-14T17:56:43;20.40;99.90
19449;DHT22;9863;49.404;8.246;2023-05-14T17:59:10;20.50;99.90
19449;DHT22;9863;49.404;8.246;2023-05-14T18:01:37;20.20;99.90
19449;DHT22;9863;49.404;8.246;2023-05-14T18:04:05;19.90;99.90
19449;DHT22;9863;49.404;8.246;2023-05-14T18:06:32;19.90;99.90
19449;DHT22;9863;49.404;8.246;2023-05-14T18:08:59;20.30;99.90
19449;DHT22;9863;49.404;8.246;2023-05-14T18:13:59;19.50;99.90
19449;DHT22;9863;49.404;8.246;2023-05-14T18:18:54;19.30;99.90
19449;DHT22;9863;49.404;8.246;2023-05-14T18:21:26;19.40;99.90
19449;DHT22;9863;49.404;8.246;2023-05-14T18:23:53;19.40;99.90
19449;DHT22;9863;49.404;8.246;2023-05-14T18:26:20;19.30;99.90
19449;DHT22;9863;49.404;8.246;2023-05-14T18:28:49;19.00;99.90
19449;DHT22;9863;49.404;8.246;2023-05-14T18:31:17;19.10;99.90
19449;DHT22;9863;49.404;8.246;2023-05-14T18:36:11;19.10;99.90
19449;DHT22;9863;49.404;8.246;2023-05-14T18:41:06;18.70;99.90
19449;DHT22;9863;49.404;8.246;2023-05-14T18:43:33;18.80;99.90
19449;DHT22;9863;49.404;8.246;2023-05-14T18:46:00;18.80;99.90
19449;DHT22;9863;49.404;8.246;2023-05-14T18:53:23;18.40;99.90
19449;DHT22;9863;49.404;8.246;2023-05-14T18:55:50;18.10;99.90
19449;DHT22;9863;49.404;8.246;2023-05-14T18:58:17;17.70;99.90
19449;DHT22;9863;49.404;8.246;2023-05-14T19:00:45;17.60;99.90
19449;DHT22;9863;49.404;8.246;2023-05-14T19:03:12;17.70;99.90
19449;DHT22;9863;49.404;8.246;2023-05-14T19:05:39;17.40;99.90
19449;DHT22;9863;49.404;8.246;2023-05-14T19:10:34;17.30;99.90
19449;DHT22;9863;49.404;8.246;2023-05-14T19:15:32;17.20;99.90
19449;DHT22;9863;49.404;8.246;2023-05-14T19:17:59;17.10;99.90
19449;DHT22;9863;49.404;8.246;2023-05-14T19:20:27;17.10;99.90
19449;DHT22;9863;49.404;8.246;2023-05-14T19:22:54;17.10;99.90
19449;DHT22;9863;49.404;8.246;2023-05-14T19:25:21;16.90;99.90
19449;DHT22;9863;49.404;8.246;2023-05-14T19:27:48;16.90;99.90
19449;DHT22;9863;49.404;8.246;2023-05-14T19:35:12;16.80;99.90
19449;DHT22;9863;49.404;8.246;2023-05-14T19:37:42;16.80;99.90
19449;DHT22;9863;49.404;8.246;2023-05-14T19:40:09;16.70;99.90
19449;DHT22;9863;49.404;8.246;2023-05-14T19:42:36;16.60;99.90
19449;DHT22;9863;49.404;8.246;2023-05-14T19:45:04;16.60;99.90
19449;DHT22;9863;49.404;8.246;2023-05-14T19:47:32;16.60;99.90
19449;DHT22;9863;49.404;8.246;2023-05-14T19:52:27;16.50;99.90
19449;DHT22;9863;49.404;8.246;2023-05-14T19:54:54;16.60;99.90
19449;DHT22;9863;49.404;8.246;2023-05-14T20:22:02;16.00;99.90
19449;DHT22;9863;49.404;8.246;2023-05-14T20:41:42;15.80;99.90
19449;DHT22;9863;49.404;8.246;2023-05-14T20:44:11;15.80;99.90
19449;DHT22;9863;49.404;8.246;2023-05-14T20:46:38;15.70;99.90
19449;DHT22;9863;49.404;8.246;2023-05-14T20:49:05;15.60;99.90
19449;DHT22;9863;49.404;8.246;2023-05-14T20:51:33;15.60;99.90
19449;DHT22;9863;49.404;8.246;2023-05-14T20:54:00;15.50;99.90
19449;DHT22;9863;49.404;8.246;2023-05-14T20:56:28;15.50;99.90
19449;DHT22;9863;49.404;8.246;2023-05-14T20:58:55;15.40;99.90
19449;DHT22;9863;49.404;8.246;2023-05-14T21:01:23;15.30;99.90
19449;DHT22;9863;49.404;8.246;2023-05-14T21:03:50;15.30;99.90
19449;DHT22;9863;49.404;8.246;2023-05-14T21:06:17;15.20;99.90
19449;DHT22;9863;49.404;8.246;2023-05-14T21:08:44;15.10;99.90
19449;DHT22;9863;49.404;8.246;2023-05-14T21:11:11;15.00;99.90
19449;DHT22;9863;49.404;8.246;2023-05-14T21:13:38;15.00;99.90
19449;DHT22;9863;49.404;8.246;2023-05-14T21:16:05;14.90;99.90
19449;DHT22;9863;49.404;8.246;2023-05-14T21:18:33;14.90;99.90
19449;DHT22;9863;49.404;8.246;2023-05-14T21:21:00;14.90;99.90
19449;DHT22;9863;49.404;8.246;2023-05-14T21:23:27;14.80;99.90
19449;DHT22;9863;49.404;8.246;2023-05-14T21:25:54;14.80;99.90
19449;DHT22;9863;49.404;8.246;2023-05-14T21:28:21;14.80;99.90
19449;DHT22;9863;49.404;8.246;2023-05-14T21:30:49;14.70;99.90
19449;DHT22;9863;49.404;8.246;2023-05-14T21:33:16;14.70;99.90
19449;DHT22;9863;49.404;8.246;2023-05-14T21:35:44;14.70;99.90
19449;DHT22;9863;49.404;8.246;2023-05-14T21:38:11;14.60;99.90
19449;DHT22;9863;49.404;8.246;2023-05-14T21:40:38;14.70;99.90
19449;DHT22;9863;49.404;8.246;2023-05-14T21:43:05;14.60;99.90
19449;DHT22;9863;49.404;8.246;2023-05-14T21:45:32;14.60;99.90
19449;DHT22;9863;49.404;8.246;2023-05-14T21:48:00;14.50;99.90
19449;DHT22;9863;49.404;8.246;2023-05-14T21:52:55;14.30;99.90
19449;DHT22;9863;49.404;8.246;2023-05-14T21:55:22;14.30;99.90
19449;DHT22;9863;49.404;8.246;2023-05-14T21:57:50;14.30;99.90
19449;DHT22;9863;49.404;8.246;2023-05-14T22:00:17;14.20;99.90
19449;DHT22;9863;49.404;8.246;2023-05-14T22:02:50;14.10;99.90
19449;DHT22;9863;49.404;8.246;2023-05-14T22:05:18;14.00;99.90
19449;DHT22;9863;49.404;8.246;2023-05-14T22:07:46;14.10;99.90
19449;DHT22;9863;49.404;8.246;2023-05-14T22:10:14;14.00;99.90
19449;DHT22;9863;49.404;8.246;2023-05-14T22:12:43;14.00;99.90
19449;DHT22;9863;49.404;8.246;2023-05-14T22:15:11;13.90;99.90
19449;DHT22;9863;49.404;8.246;2023-05-14T22:17:38;13.90;99.90
19449;DHT22;9863;49.404;8.246;2023-05-14T22:20:06;13.90;99.90
19449;DHT22;9863;49.404;8.246;2023-05-14T22:22:33;13.90;99.90
19449;DHT22;9863;49.404;8.246;2023-05-14T22:25:04;13.90;99.90
19449;DHT22;9863;49.404;8.246;2023-05-14T22:27:50;13.90;99.90
19449;DHT22;9863;49.404;8.246;2023-05-14T22:30:17;13.90;99.90
19449;DHT22;9863;49.404;8.246;2023-05-14T22:40:08;13.90;99.90
19449;DHT22;9863;49.404;8.246;2023-05-14T22:45:03;13.80;99.90
19449;DHT22;9863;49.404;8.246;2023-05-14T22:47:31;13.80;99.90
19449;DHT22;9863;49.404;8.246;2023-05-14T22:49:58;13.70;99.90
19449;DHT22;9863;49.404;8.246;2023-05-14T22:52:25;13.70;99.90
19449;DHT22;9863;49.404;8.246;2023-05-14T22:54:52;13.70;99.90
19449;DHT22;9863;49.404;8.246;2023-05-14T22:57:20;13.70;99.90
19449;DHT22;9863;49.404;8.246;2023-05-14T23:02:14;13.50;99.90
19449;DHT22;9863;49.404;8.246;2023-05-14T23:07:09;13.50;99.90
19449;DHT22;9863;49.404;8.246;2023-05-14T23:09:36;13.50;99.90
19449;DHT22;9863;49.404;8.246;2023-05-14T23:12:03;13.50;99.90
19449;DHT22;9863;49.404;8.246;2023-05-14T23:14:30;13.60;99.90
19449;DHT22;9863;49.404;8.246;2023-05-14T23:16:58;13.50;99.90
19449;DHT22;9863;49.404;8.246;2023-05-14T23:19:25;13.50;99.90
19449;DHT22;9863;49.404;8.246;2023-05-14T23:21:52;13.50;99.90
19449;DHT22;9863;49.404;8.246;2023-05-14T23:24:19;13.50;99.90
19449;DHT22;9863;49.404;8.246;2023-05-14T23:26:46;13.50;99.90
19449;DHT22;9863;49.404;8.246;2023-05-14T23:29:13;13.40;99.90
19449;DHT22;9863;49.404;8.246;2023-05-14T23:31:40;13.40;99.90
19449;DHT22;9863;49.404;8.246;2023-05-14T23:34:09;13.40;99.90
19449;DHT22;9863;49.404;8.246;2023-05-14T23:36:36;13.40;99.90
19449;DHT22;9863;49.404;8.246;2023-05-14T23:39:05;13.40;99.90
19449;DHT22;9863;49.404;8.246;2023-05-14T23:41:32;13.30;99.90
19449;DHT22;9863;49.404;8.246;2023-05-14T23:43:59;13.30;99.90
19449;DHT22;9863;49.404;8.246;2023-05-14T23:46:26;13.30;99.90
19449;DHT22;9863;49.404;8.246;2023-05-14T23:48:53;13.20;99.90
19449;DHT22;9863;49.404;8.246;2023-05-14T23:51:23;13.30;99.90
19449;DHT22;9863;49.404;8.246;2023-05-14T23:53:50;13.20;99.90
19449;DHT22;9863;49.404;8.246;2023-05-14T23:56:25;13.20;99.90
19449;DHT22;9863;49.404;8.246;2023-05-14T23:58:55;13.20;99.90
